createdAt,value
2018-04-07T00:00:55.375Z,95021.41
2018-04-07T00:03:23.119Z,95021.64
2018-04-07T00:05:51.683Z,95013.88
2018-04-07T00:08:19.394Z,95011.94
2018-04-07T00:10:47.113Z,95021.19
2018-04-07T00:13:14.851Z,95020.09
2018-04-07T00:15:42.589Z,95021.03
2018-04-07T00:18:10.369Z,95027.90
2018-04-07T00:20:38.156Z,95020.05
2018-04-07T00:23:05.965Z,95022.06
2018-04-07T00:25:33.708Z,95023.84
2018-04-07T00:28:01.500Z,95023.08
2018-04-07T00:30:29.204Z,95019.25
2018-04-07T00:32:56.945Z,95017.03
2018-04-07T00:35:24.622Z,95016.77
2018-04-07T00:37:52.382Z,95012.24
2018-04-07T00:40:20.250Z,95017.79
2018-04-07T00:42:48.841Z,95019.88
2018-04-07T00:45:16.523Z,95022.27
2018-04-07T00:47:44.978Z,95020.02
2018-04-07T00:50:12.679Z,95022.80
2018-04-07T00:52:52.289Z,95026.81
2018-04-07T00:55:20.003Z,95024.37
2018-04-07T00:57:48.240Z,95024.49
2018-04-07T01:00:16.002Z,95025.77
2018-04-07T01:02:44.293Z,95024.59
2018-04-07T01:05:12.003Z,95034.42
2018-04-07T01:07:39.663Z,95038.16
2018-04-07T01:10:07.460Z,95035.30
2018-04-07T01:12:35.271Z,95031.34
2018-04-07T01:15:03.397Z,95030.54
2018-04-07T01:17:31.069Z,95035.06
2018-04-07T01:19:58.802Z,95046.02
2018-04-07T01:22:26.551Z,95048.98
2018-04-07T01:24:54.319Z,95052.58
2018-04-07T01:27:22.138Z,95059.16
2018-04-07T01:29:49.921Z,95057.05
2018-04-07T01:32:18.128Z,95057.13
2018-04-07T01:34:45.850Z,95059.16
2018-04-07T01:37:13.661Z,95062.06
2018-04-07T01:39:41.386Z,95060.65
2018-04-07T01:42:09.214Z,95067.36
2018-04-07T01:44:36.908Z,95064.11
2018-04-07T01:47:04.628Z,95070.77
2018-04-07T01:49:32.383Z,95069.75
2018-04-07T01:52:00.098Z,95073.79
2018-04-07T01:54:27.785Z,95071.91
2018-04-07T01:56:56.723Z,95068.33
2018-04-07T01:59:24.593Z,95072.13
2018-04-07T02:01:52.316Z,95068.70
2018-04-07T02:04:20.054Z,95061.97
2018-04-07T02:06:47.884Z,95066.84
2018-04-07T02:09:15.560Z,95065.36
2018-04-07T02:11:43.289Z,95064.95
2018-04-07T02:14:11.691Z,95069.56
2018-04-07T02:16:39.420Z,95065.06
2018-04-07T02:19:07.134Z,95069.09
2018-04-07T02:21:35.284Z,95070.17
2018-04-07T02:24:03.066Z,95073.09
2018-04-07T02:26:30.824Z,95079.21
2018-04-07T02:28:58.585Z,95077.86
2018-04-07T02:31:26.308Z,95081.25
2018-04-07T02:33:54.093Z,95075.03
2018-04-07T02:36:21.780Z,95074.80
2018-04-07T02:38:49.509Z,95079.95
2018-04-07T02:41:17.281Z,95078.74
2018-04-07T02:43:44.991Z,95082.42
2018-04-07T02:46:15.516Z,95082.25
2018-04-07T02:48:43.280Z,95079.87
2018-04-07T02:51:11.031Z,95081.48
2018-04-07T02:53:38.813Z,95074.27
2018-04-07T02:56:06.682Z,95081.00
2018-04-07T02:58:34.413Z,95083.56
2018-04-07T03:01:02.232Z,95089.55
2018-04-07T03:03:29.914Z,95088.93
2018-04-07T03:05:57.682Z,95094.64
2018-04-07T03:08:26.698Z,95088.65
2018-04-07T03:10:54.402Z,95101.02
2018-04-07T03:13:22.839Z,95097.01
2018-04-07T03:15:50.614Z,95111.03
2018-04-07T03:18:18.344Z,95106.34
2018-04-07T03:20:46.816Z,95111.58
2018-04-07T03:23:14.619Z,95110.83
2018-04-07T03:25:42.314Z,95113.70
2018-04-07T03:28:10.086Z,95114.10
2018-04-07T03:30:37.868Z,95111.48
2018-04-07T03:33:05.634Z,95112.67
2018-04-07T03:35:33.297Z,95116.72
2018-04-07T03:38:01.131Z,95119.09
2018-04-07T03:40:28.874Z,95116.70
2018-04-07T03:42:57.220Z,95117.09
2018-04-07T03:45:25.092Z,95119.22
2018-04-07T03:47:52.827Z,95124.34
2018-04-07T03:50:21.636Z,95123.87
2018-04-07T03:52:49.359Z,95125.20
2018-04-07T03:55:17.768Z,95121.15
2018-04-07T03:57:45.467Z,95130.69
2018-04-07T04:00:13.193Z,95137.34
2018-04-07T04:02:41.045Z,95137.11
2018-04-07T04:05:08.825Z,95136.36
2018-04-07T04:07:36.504Z,95134.30
2018-04-07T04:10:04.387Z,95140.61
2018-04-07T04:12:32.177Z,95142.58
2018-04-07T04:14:59.852Z,95146.33
2018-04-07T04:17:27.632Z,95146.16
2018-04-07T04:19:56.325Z,95147.14
2018-04-07T04:22:23.983Z,95150.77
2018-04-07T04:24:51.699Z,95153.66
2018-04-07T04:27:19.362Z,95162.52
2018-04-07T04:29:47.074Z,95159.77
2018-04-07T04:32:14.846Z,95170.32
2018-04-07T04:34:42.550Z,95174.13
2018-04-07T04:37:10.365Z,95175.44
2018-04-07T04:39:38.146Z,95170.94
2018-04-07T04:42:07.524Z,95171.96
2018-04-07T04:44:35.292Z,95178.39
2018-04-07T04:47:02.949Z,95177.33
2018-04-07T04:49:30.664Z,95179.22
2018-04-07T04:51:58.327Z,95181.47
2018-04-07T04:54:26.101Z,95180.37
2018-04-07T04:56:53.831Z,95176.27
2018-04-07T04:59:22.805Z,95179.46
2018-04-07T05:01:50.453Z,95176.97
2018-04-07T05:04:18.174Z,95175.38
2018-04-07T05:06:48.407Z,95175.73
2018-04-07T05:09:17.680Z,95172.09
2018-04-07T05:11:45.431Z,95168.84
2018-04-07T05:14:14.234Z,95168.48
2018-04-07T05:16:41.989Z,95175.73
2018-04-07T05:19:09.762Z,95174.06
2018-04-07T05:21:37.549Z,95174.72
2018-04-07T05:24:05.234Z,95174.63
2018-04-07T05:26:33.033Z,95175.16
2018-04-07T05:29:00.716Z,95178.34
2018-04-07T05:31:28.382Z,95176.78
2018-04-07T05:33:56.899Z,95178.89
2018-04-07T05:36:24.622Z,95187.53
2018-04-07T05:38:52.328Z,95186.33
2018-04-07T05:41:20.733Z,95188.12
2018-04-07T05:43:48.464Z,95187.58
2018-04-07T05:46:16.176Z,95181.69
2018-04-07T05:48:43.898Z,95192.08
2018-04-07T05:51:11.576Z,95189.95
2018-04-07T05:53:39.329Z,95188.46
2018-04-07T05:56:07.085Z,95194.70
2018-04-07T05:58:34.802Z,95201.84
2018-04-07T06:01:02.478Z,95203.71
2018-04-07T06:03:30.211Z,95203.51
2018-04-07T06:05:58.016Z,95203.19
2018-04-07T06:08:25.837Z,95203.47
2018-04-07T06:10:53.537Z,95201.83
2018-04-07T06:13:22.226Z,95205.75
2018-04-07T06:15:49.952Z,95206.95
2018-04-07T06:18:17.795Z,95209.08
2018-04-07T06:20:45.529Z,95217.14
2018-04-07T06:23:13.236Z,95220.44
2018-04-07T06:25:40.911Z,95214.94
2018-04-07T06:28:08.644Z,95220.30
2018-04-07T06:30:36.349Z,95220.27
2018-04-07T06:33:04.067Z,95227.39
2018-04-07T06:35:31.786Z,95228.23
2018-04-07T06:37:59.469Z,95229.16
2018-04-07T06:40:27.206Z,95241.89
2018-04-07T06:42:54.980Z,95234.83
2018-04-07T06:45:22.690Z,95242.88
2018-04-07T06:47:50.934Z,95233.88
2018-04-07T06:50:19.640Z,95233.02
2018-04-07T06:52:47.974Z,95240.09
2018-04-07T06:55:16.735Z,95236.40
2018-04-07T06:57:44.492Z,95231.59
2018-04-07T07:00:12.162Z,95245.91
2018-04-07T07:02:39.930Z,95247.14
2018-04-07T07:05:07.699Z,95252.88
2018-04-07T07:07:35.540Z,95250.70
2018-04-07T07:10:03.348Z,95256.17
2018-04-07T07:12:31.055Z,95255.00
2018-04-07T07:14:58.769Z,95258.52
2018-04-07T07:17:26.460Z,95262.45
2018-04-07T07:19:54.282Z,95263.12
2018-04-07T07:22:22.049Z,95263.56
2018-04-07T07:24:49.787Z,95269.48
2018-04-07T07:27:17.564Z,95266.14
2018-04-07T07:29:45.337Z,95270.75
2018-04-07T07:32:13.035Z,95269.77
2018-04-07T07:34:40.719Z,95273.50
2018-04-07T07:37:08.532Z,95278.91
2018-04-07T07:39:36.318Z,95272.91
2018-04-07T07:42:04.098Z,95282.28
2018-04-07T07:44:31.822Z,95280.42
2018-04-07T07:46:59.529Z,95281.86
2018-04-07T07:49:27.268Z,95282.32
2018-04-07T07:51:54.969Z,95286.09
2018-04-07T07:54:22.737Z,95281.30
2018-04-07T07:56:50.405Z,95287.12
2018-04-07T07:59:18.071Z,95283.63
2018-04-07T08:01:46.705Z,95288.84
2018-04-07T08:04:14.426Z,95289.69
2018-04-07T08:06:42.164Z,95283.87
2018-04-07T08:09:09.907Z,95278.71
2018-04-07T08:11:37.627Z,95275.09
2018-04-07T08:14:05.307Z,95276.08
2018-04-07T08:16:33.145Z,95283.33
2018-04-07T08:19:00.824Z,95281.34
2018-04-07T08:21:28.519Z,95278.03
2018-04-07T08:23:56.229Z,95284.35
2018-04-07T08:26:23.878Z,95281.29
2018-04-07T08:28:51.598Z,95279.95
2018-04-07T08:31:19.418Z,95273.61
2018-04-07T08:33:47.084Z,95277.55
2018-04-07T08:36:14.799Z,95281.41
2018-04-07T08:38:42.551Z,95281.13
2018-04-07T08:41:10.214Z,95280.80
2018-04-07T08:43:38.008Z,95281.88
2018-04-07T08:46:05.748Z,95281.26
2018-04-07T08:48:33.588Z,95279.57
2018-04-07T08:51:01.357Z,95278.38
2018-04-07T08:53:29.296Z,95280.94
2018-04-07T08:55:56.994Z,95281.19
2018-04-07T08:58:24.952Z,95275.98
2018-04-07T09:00:52.876Z,95285.44
2018-04-07T09:03:20.904Z,95282.63
2018-04-07T09:05:48.760Z,95280.12
2018-04-07T09:08:16.475Z,95281.89
2018-04-07T09:10:44.191Z,95283.08
2018-04-07T09:13:11.902Z,95280.05
2018-04-07T09:15:39.642Z,95279.03
2018-04-07T09:18:07.308Z,95282.70
2018-04-07T09:20:35.027Z,95281.89
2018-04-07T09:23:02.720Z,95283.87
2018-04-07T09:25:30.406Z,95289.41
2018-04-07T09:27:58.126Z,95288.20
2018-04-07T09:30:26.646Z,95288.47
2018-04-07T09:32:54.514Z,95285.04
2018-04-07T09:35:22.181Z,95289.96
2018-04-07T09:37:49.959Z,95294.28
2018-04-07T09:40:17.725Z,95290.87
2018-04-07T09:42:45.471Z,95290.71
2018-04-07T09:45:13.186Z,95283.91
2018-04-07T09:47:40.848Z,95280.91
2018-04-07T09:50:08.829Z,95275.69
2018-04-07T09:52:36.577Z,95280.66
2018-04-07T09:55:04.293Z,95274.92
2018-04-07T09:57:32.025Z,95275.38
2018-04-07T09:59:59.728Z,95276.68
2018-04-07T10:02:35.973Z,95281.97
2018-04-07T10:05:03.905Z,95279.22
2018-04-07T10:07:31.619Z,95273.90
2018-04-07T10:09:59.293Z,95278.23
2018-04-07T10:12:26.961Z,95261.80
2018-04-07T10:14:54.744Z,95265.67
2018-04-07T10:17:22.474Z,95264.30
2018-04-07T10:19:50.299Z,95256.58
2018-04-07T10:22:17.976Z,95267.59
2018-04-07T10:24:45.639Z,95256.50
2018-04-07T10:27:13.361Z,95251.21
2018-04-07T10:29:41.045Z,95255.58
2018-04-07T10:32:08.851Z,95252.61
2018-04-07T10:34:36.529Z,95239.20
2018-04-07T10:37:04.240Z,95240.98
2018-04-07T10:39:31.990Z,95245.68
2018-04-07T10:41:59.701Z,95254.39
2018-04-07T10:44:27.483Z,95252.66
2018-04-07T10:46:55.211Z,95242.70
2018-04-07T10:49:22.943Z,95243.03
2018-04-07T10:51:50.649Z,95239.64
2018-04-07T10:54:18.375Z,95249.91
2018-04-07T10:56:46.047Z,95243.64
2018-04-07T10:59:13.747Z,95235.30
2018-04-07T11:01:41.457Z,95236.75
2018-04-07T11:04:09.139Z,95228.41
2018-04-07T11:06:36.874Z,95228.98
2018-04-07T11:09:04.781Z,95235.34
2018-04-07T11:11:32.506Z,95231.77
2018-04-07T11:14:00.220Z,95230.89
2018-04-07T11:16:27.974Z,95229.80
2018-04-07T11:18:55.669Z,95224.42
2018-04-07T11:21:23.396Z,95228.63
2018-04-07T11:23:51.057Z,95230.91
2018-04-07T11:26:18.831Z,95228.93
2018-04-07T11:28:46.638Z,95234.29
2018-04-07T11:31:14.314Z,95236.58
2018-04-07T11:33:43.023Z,95228.06
2018-04-07T11:36:19.144Z,95225.75
2018-04-07T11:38:46.838Z,95227.61
2018-04-07T11:41:14.673Z,95238.96
2018-04-07T11:43:43.018Z,95235.09
2018-04-07T11:46:10.766Z,95231.36
2018-04-07T11:48:38.443Z,95235.05
2018-04-07T11:51:11.853Z,95233.90
2018-04-07T11:53:39.605Z,95237.37
2018-04-07T11:56:07.292Z,95229.23
2018-04-07T11:58:36.764Z,95232.67
2018-04-07T12:01:04.475Z,95228.13
2018-04-07T12:03:32.739Z,95232.45
2018-04-07T12:06:05.297Z,95237.98
2018-04-07T12:08:33.971Z,95224.19
2018-04-07T12:11:02.463Z,95226.94
2018-04-07T12:13:30.337Z,95219.58
2018-04-07T12:15:58.053Z,95214.31
2018-04-07T12:18:27.142Z,95214.36
2018-04-07T12:20:54.849Z,95211.02
2018-04-07T12:23:23.650Z,95203.55
2018-04-07T12:25:51.423Z,95208.35
2018-04-07T12:28:19.221Z,95209.14
2018-04-07T12:30:47.010Z,95208.20
2018-04-07T12:33:15.967Z,95204.36
2018-04-07T12:35:43.650Z,95206.37
2018-04-07T12:38:13.906Z,95210.84
2018-04-07T12:40:41.706Z,95209.53
2018-04-07T12:43:10.627Z,95206.75
2018-04-07T12:45:38.317Z,95200.51
2018-04-07T12:48:06.066Z,95197.52
2018-04-07T12:53:08.247Z,95197.74
2018-04-07T12:55:35.933Z,95193.58
2018-04-07T12:58:04.316Z,95185.86
2018-04-07T13:00:32.090Z,95195.48
2018-04-07T13:02:59.882Z,95190.56
2018-04-07T13:05:28.519Z,95187.53
2018-04-07T13:08:03.725Z,95188.66
2018-04-07T13:10:31.483Z,95187.36
2018-04-07T13:13:00.314Z,95186.25
2018-04-07T13:15:28.103Z,95193.50
2018-04-07T13:17:55.842Z,95191.38
2018-04-07T13:20:25.658Z,95182.13
2018-04-07T13:22:54.107Z,95185.58
2018-04-07T13:25:21.856Z,95191.48
2018-04-07T13:27:49.737Z,95185.49
2018-04-07T13:30:17.502Z,95186.30
2018-04-07T13:32:45.238Z,95188.55
2018-04-07T13:35:14.034Z,95191.84
2018-04-07T13:37:41.788Z,95196.50
2018-04-07T13:40:09.498Z,95194.15
2018-04-07T13:42:37.221Z,95184.66
2018-04-07T13:45:04.983Z,95186.42
2018-04-07T13:47:35.366Z,95183.02
2018-04-07T13:50:03.169Z,95178.96
2018-04-07T13:52:30.871Z,95185.59
2018-04-07T13:54:59.100Z,95184.27
2018-04-07T13:57:27.075Z,95183.39
2018-04-07T13:59:54.734Z,95185.47
2018-04-07T14:02:22.444Z,95184.85
2018-04-07T14:04:52.719Z,95190.94
2018-04-07T14:07:20.794Z,95202.52
2018-04-07T14:09:48.553Z,95201.92
2018-04-07T14:12:16.271Z,95198.69
2018-04-07T14:14:44.020Z,95209.09
2018-04-07T14:17:12.419Z,95208.77
2018-04-07T14:19:41.529Z,95209.00
2018-04-07T14:22:15.978Z,95214.36
2018-04-07T14:24:43.738Z,95217.03
2018-04-07T14:27:11.470Z,95219.40
2018-04-07T14:29:39.199Z,95217.53
2018-04-07T14:32:09.001Z,95218.03
2018-04-07T14:34:36.745Z,95218.72
2018-04-07T14:37:04.428Z,95216.69
2018-04-07T14:39:32.210Z,95222.05
2018-04-07T14:41:59.990Z,95218.95
2018-04-07T14:44:28.650Z,95223.25
2018-04-07T14:46:56.377Z,95227.30
2018-04-07T14:49:24.117Z,95221.16
2018-04-07T14:51:51.810Z,95225.36
2018-04-07T14:54:19.530Z,95228.23
2018-04-07T14:56:47.310Z,95230.52
2018-04-07T14:59:15.118Z,95230.19
2018-04-07T15:01:42.860Z,95231.94
2018-04-07T15:04:11.246Z,95232.89
2018-04-07T15:06:40.327Z,95231.05
2018-04-07T15:09:11.172Z,95226.85
2018-04-07T15:11:38.916Z,95227.73
2018-04-07T15:14:06.660Z,95226.95
2018-04-07T15:16:34.488Z,95225.36
2018-04-07T15:19:02.229Z,95232.77
2018-04-07T15:21:30.007Z,95235.66
2018-04-07T15:24:00.955Z,95227.80
2018-04-07T15:26:32.483Z,95225.59
2018-04-07T15:29:01.299Z,95219.83
2018-04-07T15:31:29.027Z,95224.76
2018-04-07T15:33:56.806Z,95222.59
2018-04-07T15:36:24.569Z,95223.27
2018-04-07T15:38:52.326Z,95230.52
2018-04-07T15:41:20.002Z,95231.28
2018-04-07T15:43:47.748Z,95235.77
2018-04-07T15:46:15.421Z,95235.19
2018-04-07T15:48:43.173Z,95239.40
2018-04-07T15:51:10.976Z,95250.30
2018-04-07T15:53:38.732Z,95246.24
2018-04-07T15:56:06.891Z,95246.30
2018-04-07T15:58:34.714Z,95246.54
2018-04-07T16:01:02.597Z,95249.23
2018-04-07T16:03:30.368Z,95244.94
2018-04-07T16:06:00.203Z,95252.77
2018-04-07T16:08:28.035Z,95251.09
2018-04-07T16:10:55.798Z,95257.12
2018-04-07T16:13:23.523Z,95266.45
2018-04-07T16:15:51.220Z,95261.91
2018-04-07T16:18:18.980Z,95273.45
2018-04-07T16:20:46.821Z,95272.81
2018-04-07T16:23:14.541Z,95273.55
2018-04-07T16:25:42.268Z,95268.41
2018-04-07T16:28:09.950Z,95276.04
2018-04-07T16:30:37.756Z,95276.95
2018-04-07T16:33:05.534Z,95273.73
2018-04-07T16:35:33.355Z,95270.06
2018-04-07T16:38:01.173Z,95282.74
2018-04-07T16:40:28.964Z,95286.83
2018-04-07T16:42:56.788Z,95287.00
2018-04-07T16:45:24.578Z,95284.12
2018-04-07T16:47:52.451Z,95286.28
2018-04-07T16:50:20.272Z,95284.41
2018-04-07T16:52:47.996Z,95291.42
2018-04-07T16:55:15.756Z,95289.03
2018-04-07T16:57:44.558Z,95288.34
2018-04-07T17:00:12.296Z,95291.39
2018-04-07T17:02:40.066Z,95292.59
2018-04-07T17:05:07.795Z,95290.03
2018-04-07T17:07:35.588Z,95292.03
2018-04-07T17:10:03.342Z,95294.23
2018-04-07T17:12:32.203Z,95297.58
2018-04-07T17:15:00.017Z,95290.34
2018-04-07T17:17:27.695Z,95296.47
2018-04-07T17:19:55.427Z,95299.09
2018-04-07T17:22:23.119Z,95298.20
2018-04-07T17:24:50.888Z,95301.86
2018-04-07T17:27:18.706Z,95299.37
2018-04-07T17:29:46.399Z,95306.97
2018-04-07T17:32:14.169Z,95314.13
2018-04-07T17:34:41.874Z,95319.34
2018-04-07T17:37:09.652Z,95321.06
2018-04-07T17:39:37.367Z,95323.38
2018-04-07T17:42:05.072Z,95330.16
2018-04-07T17:44:32.793Z,95333.20
2018-04-07T17:47:00.855Z,95340.42
2018-04-07T17:49:28.547Z,95335.87
2018-04-07T17:51:56.335Z,95336.85
2018-04-07T17:54:24.106Z,95343.55
2018-04-07T17:56:54.951Z,95346.75
2018-04-07T17:59:22.895Z,95354.13
2018-04-07T18:01:50.668Z,95352.42
2018-04-07T18:04:19.645Z,95354.21
2018-04-07T18:06:47.387Z,95354.23
2018-04-07T18:09:15.136Z,95356.74
2018-04-07T18:11:42.817Z,95367.56
2018-04-07T18:14:10.641Z,95371.78
2018-04-07T18:16:38.367Z,95377.16
2018-04-07T18:19:06.220Z,95383.83
2018-04-07T18:21:33.929Z,95378.90
2018-04-07T18:24:01.704Z,95384.28
2018-04-07T18:26:29.457Z,95389.36
2018-04-07T18:28:57.263Z,95388.86
2018-04-07T18:31:25.184Z,95385.38
2018-04-07T18:33:52.921Z,95382.39
2018-04-07T18:36:20.696Z,95391.17
2018-04-07T18:38:48.505Z,95388.50
2018-04-07T18:41:16.380Z,95391.16
2018-04-07T18:43:44.155Z,95397.31
2018-04-07T18:46:11.883Z,95397.62
2018-04-07T18:48:39.634Z,95401.58
2018-04-07T18:51:07.453Z,95403.11
2018-04-07T18:53:35.455Z,95402.59
2018-04-07T18:56:03.284Z,95404.70
2018-04-07T18:58:31.120Z,95407.45
2018-04-07T19:00:58.866Z,95402.03
2018-04-07T19:03:26.712Z,95407.95
2018-04-07T19:05:54.466Z,95418.33
2018-04-07T19:08:22.280Z,95418.55
2018-04-07T19:10:50.118Z,95417.78
2018-04-07T19:13:17.901Z,95421.94
2018-04-07T19:15:45.591Z,95415.59
2018-04-07T19:18:13.328Z,95417.66
2018-04-07T19:20:41.087Z,95415.89
2018-04-07T19:23:08.794Z,95416.99
2018-04-07T19:25:36.481Z,95416.98
2018-04-07T19:28:04.261Z,95414.24
2018-04-07T19:30:32.047Z,95413.75
2018-04-07T19:32:59.777Z,95415.05
2018-04-07T19:35:27.585Z,95409.66
2018-04-07T19:37:55.386Z,95414.83
2018-04-07T19:40:23.168Z,95411.77
2018-04-07T19:42:50.948Z,95418.80
2018-04-07T19:45:18.645Z,95419.70
2018-04-07T19:47:46.457Z,95429.38
2018-04-07T19:50:14.205Z,95423.52
2018-04-07T19:52:41.913Z,95430.05
2018-04-07T19:55:09.702Z,95430.44
2018-04-07T19:57:37.521Z,95426.94
2018-04-07T20:00:05.309Z,95425.44
2018-04-07T20:02:33.017Z,95430.23
2018-04-07T20:05:00.856Z,95427.95
2018-04-07T20:07:28.549Z,95423.05
2018-04-07T20:09:56.301Z,95433.09
2018-04-07T20:12:24.172Z,95426.66
2018-04-07T20:14:51.910Z,95426.39
2018-04-07T20:17:19.628Z,95432.03
2018-04-07T20:19:47.478Z,95428.08
2018-04-07T20:22:15.863Z,95430.38
2018-04-07T20:24:43.627Z,95430.09
2018-04-07T20:27:11.347Z,95429.72
2018-04-07T20:32:12.973Z,95425.92
2018-04-07T20:34:40.689Z,95427.15
2018-04-07T20:37:08.409Z,95434.08
2018-04-07T20:39:36.588Z,95429.77
2018-04-07T20:42:16.213Z,95432.14
2018-04-07T20:44:43.977Z,95434.08
2018-04-07T20:47:11.760Z,95432.66
2018-04-07T20:49:39.506Z,95432.39
2018-04-07T20:52:07.180Z,95436.00
2018-04-07T20:54:34.906Z,95431.92
2018-04-07T20:57:02.640Z,95432.07
2018-04-07T20:59:30.325Z,95428.16
2018-04-07T21:01:58.980Z,95429.48
2018-04-07T21:04:26.820Z,95425.78
2018-04-07T21:06:54.685Z,95427.32
2018-04-07T21:09:23.421Z,95422.05
2018-04-07T21:11:51.168Z,95428.52
2018-04-07T21:14:18.842Z,95426.70
2018-04-07T21:16:46.516Z,95421.28
2018-04-07T21:19:14.263Z,95421.28
2018-04-07T21:21:42.184Z,95422.77
2018-04-07T21:24:09.899Z,95423.17
2018-04-07T21:26:37.649Z,95427.55
2018-04-07T21:29:05.428Z,95429.06
2018-04-07T21:31:33.118Z,95428.52
2018-04-07T21:34:00.894Z,95427.54
2018-04-07T21:36:28.610Z,95431.61
2018-04-07T21:38:56.376Z,95431.84
2018-04-07T21:41:24.782Z,95434.19
2018-04-07T21:43:52.625Z,95437.42
2018-04-07T21:46:21.277Z,95434.53
2018-04-07T21:48:49.949Z,95436.98
2018-04-07T21:51:18.609Z,95440.75
2018-04-07T21:53:47.156Z,95433.83
2018-04-07T21:56:15.724Z,95433.49
2018-04-07T21:58:43.516Z,95431.06
2018-04-07T22:01:11.181Z,95430.95
2018-04-07T22:03:38.916Z,95440.33
2018-04-07T22:06:06.663Z,95436.49
2018-04-07T22:08:34.461Z,95433.03
2018-04-07T22:11:02.270Z,95432.43
2018-04-07T22:13:30.056Z,95426.91
2018-04-07T22:15:57.825Z,95431.41
2018-04-07T22:18:25.549Z,95434.92
2018-04-07T22:20:53.228Z,95430.48
2018-04-07T22:23:21.019Z,95433.04
2018-04-07T22:25:49.308Z,95421.86
2018-04-07T22:28:17.126Z,95423.29
2018-04-07T22:30:45.951Z,95428.58
2018-04-07T22:33:13.760Z,95420.16
2018-04-07T22:35:41.552Z,95425.56
2018-04-07T22:38:09.364Z,95419.27
2018-04-07T22:40:37.095Z,95422.40
2018-04-07T22:43:04.863Z,95427.50
2018-04-07T22:45:32.621Z,95422.16
2018-04-07T22:48:00.348Z,95418.94
2018-04-07T22:50:29.023Z,95421.75
2018-04-07T22:52:56.893Z,95416.75
2018-04-07T22:55:24.773Z,95410.89
2018-04-07T22:57:52.488Z,95413.53
2018-04-07T23:00:21.016Z,95410.34
2018-04-07T23:02:48.836Z,95409.08
2018-04-07T23:05:16.496Z,95404.19
2018-04-07T23:07:44.226Z,95401.17
2018-04-07T23:10:11.931Z,95398.02
2018-04-07T23:12:39.812Z,95400.89
2018-04-07T23:15:08.246Z,95405.38
2018-04-07T23:17:36.004Z,95410.03
2018-04-07T23:20:03.706Z,95407.94
2018-04-07T23:22:31.403Z,95407.66
2018-04-07T23:24:59.204Z,95397.37
2018-04-07T23:27:27.128Z,95395.31
2018-04-07T23:29:54.993Z,95398.78
2018-04-07T23:32:22.716Z,95399.47
2018-04-07T23:34:53.527Z,95389.57
2018-04-07T23:37:21.609Z,95393.10
2018-04-07T23:39:49.355Z,95391.91
2018-04-07T23:42:17.166Z,95383.80
2018-04-07T23:44:44.904Z,95383.05
2018-04-07T23:47:13.586Z,95386.34
2018-04-07T23:49:41.457Z,95386.79
2018-04-07T23:52:09.202Z,95385.13
2018-04-07T23:54:36.930Z,95380.81
2018-04-07T23:57:04.722Z,95386.19
2018-04-07T23:59:33.308Z,95380.97
